2A0

Mark Anton Airport

Dayton, Tennessee, USA
METAR K2A0 172315Z AUTO 00000KT 10SM CLR 09/05 A3020 RMK A01
Observed Flight Rules
Nov-17 @ 23:15 UTC (21 minutes ago) Visual Flight Rules
Visibility Clouds
10 miles
  • Clear skies
Temperatures Readings
Current 9°C / 48°F
Dewpoint 5°C / 41°F
Humidity 76%
Altimeter 30.2" Hg
Pressure 1023 hPa
Elevation 219
METAR K2A0 172315Z AUTO 00000KT 10SM CLR 09/05 A3020 RMK A01
Observed Flight Rules
Nov-17 @ 23:15 UTC
(21 minutes ago)
VFR
Clouds
  • Clear skies
Temperature Dewpoint
9°C / 48°F 5°C / 41°F
Humidity Altimeter Pressure
76% 30.2" Hg 1023 hPa